Time;durP1;ratioP1;P1;durP2;ratioP2;P2;SDS_P1;SDS_P2;PMS_P1;PMS_P2;Temp;Humidity;BMP_temperature;BMP_pressure;BME280_temperature;BME280_humidity;BME280_pressure;Samples;Min_cycle;Max_cycle;Signal;HPM_P1;HPM_P2
2024/02/22 00:00:46;;;;;;;7.32;4.10;;;;;;;11.33;57.27;99377.72;5034865;28;20108;-83
2024/02/22 00:03:12;;;;;;;8.88;4.60;;;;;;;11.35;57.45;99383.66;5033541;28;20523;-82
2024/02/22 00:05:37;;;;;;;6.47;4.43;;;;;;;11.32;57.69;99378.63;5035011;28;20056;-83
2024/02/22 00:08:03;;;;;;;7.68;4.35;;;;;;;11.29;57.35;99384.94;5016813;28;20049;-82
2024/02/22 00:10:29;;;;;;;5.25;3.53;;;;;;;11.27;57.57;99383.34;5033571;28;20045;-82
2024/02/22 00:12:55;;;;;;;5.45;3.80;;;;;;;11.26;57.61;99387.75;5034698;28;20029;-82
2024/02/22 00:15:21;;;;;;;5.57;4.18;;;;;;;11.23;57.53;99386.19;5000864;28;20467;-83
2024/02/22 00:17:46;;;;;;;5.70;3.95;;;;;;;11.22;57.53;99389.72;5033560;28;20040;-82
2024/02/22 00:20:13;;;;;;;6.30;3.97;;;;;;;11.15;57.62;99380.66;5033089;28;20037;-82
2024/02/22 00:22:39;;;;;;;5.47;3.88;;;;;;;11.16;57.50;99376.25;5017047;28;20032;-82
2024/02/22 00:25:05;;;;;;;6.20;3.75;;;;;;;11.19;57.45;99381.25;5016893;28;20041;-82
2024/02/22 00:27:31;;;;;;;5.50;4.03;;;;;;;11.13;57.74;99372.09;5033209;28;20044;-81
2024/02/22 00:29:56;;;;;;;5.88;3.53;;;;;;;11.11;57.65;99362.66;5000229;28;20104;-83
2024/02/22 00:32:22;;;;;;;8.00;3.95;;;;;;;11.13;57.70;99368.63;5033953;28;20029;-81
2024/02/22 00:34:47;;;;;;;6.30;4.18;;;;;;;11.11;57.55;99373.94;5033148;28;20033;-82
2024/02/22 00:37:13;;;;;;;6.30;3.70;;;;;;;11.05;57.91;99358.69;5034370;28;20026;-82
2024/02/22 00:39:38;;;;;;;5.75;3.95;;;;;;;11.07;57.86;99366.41;5016428;28;20037;-82
2024/02/22 00:42:05;;;;;;;7.07;4.22;;;;;;;11.04;57.77;99365.69;5032900;28;20131;-81
2024/02/22 00:44:31;;;;;;;5.35;3.63;;;;;;;10.97;57.71;99358.38;5034132;28;20067;-82
2024/02/22 00:46:56;;;;;;;5.63;4.00;;;;;;;10.98;57.88;99366.13;5032759;28;20485;-82
2024/02/22 00:49:22;;;;;;;5.75;3.42;;;;;;;10.95;57.65;99360.28;5034193;28;20037;-82
2024/02/22 00:51:47;;;;;;;5.85;3.63;;;;;;;10.93;57.69;99359.53;5016220;28;20037;-83
2024/02/22 00:54:13;;;;;;;5.55;3.40;;;;;;;10.90;58.07;99354.53;5033906;28;20484;-82
2024/02/22 00:56:38;;;;;;;5.82;3.90;;;;;;;10.88;58.01;99349.41;5034081;28;20103;-83
2024/02/22 00:59:04;;;;;;;5.47;3.60;;;;;;;10.85;58.04;99350.44;5033384;28;20032;-82
2024/02/22 01:01:29;;;;;;;5.50;3.55;;;;;;;10.83;57.91;99341.88;5032698;28;20037;-83
2024/02/22 01:03:55;;;;;;;6.35;3.60;;;;;;;10.77;58.20;99331.00;5033789;28;20033;-83
2024/02/22 01:06:20;;;;;;;4.97;3.50;;;;;;;10.78;57.94;99333.50;5032316;28;20461;-82
2024/02/22 01:08:46;;;;;;;5.40;3.50;;;;;;;10.73;57.99;99321.72;5016070;28;20048;-81
2024/02/22 01:11:12;;;;;;;5.63;3.55;;;;;;;10.74;58.14;99337.28;5015773;28;20048;-82
2024/02/22 01:13:37;;;;;;;6.75;3.90;;;;;;;10.70;58.17;99329.75;5033291;28;20496;-83
2024/02/22 01:16:04;;;;;;;4.93;3.22;;;;;;;10.70;58.01;99333.19;5033375;28;20076;-83
2024/02/22 01:18:30;;;;;;;5.38;3.25;;;;;;;10.66;58.02;99326.53;5015699;28;20037;-83
2024/02/22 01:20:55;;;;;;;4.40;3.10;;;;;;;10.61;58.08;99323.34;5033270;28;20033;-83
2024/02/22 01:23:21;;;;;;;5.75;3.40;;;;;;;10.58;58.26;99329.63;5015302;28;20041;-82
2024/02/22 01:25:47;;;;;;;5.50;3.33;;;;;;;10.55;58.07;99329.84;5015600;28;20451;-83
2024/02/22 01:28:13;;;;;;;4.38;3.20;;;;;;;10.52;58.21;99330.03;5015775;28;20072;-83
2024/02/22 01:30:39;;;;;;;5.25;3.60;;;;;;;10.44;58.34;99322.72;5031859;28;20064;-82
2024/02/22 01:33:05;;;;;;;4.72;3.28;;;;;;;10.46;58.36;99320.00;5014914;28;20038;-82
2024/02/22 01:35:30;;;;;;;4.03;2.95;;;;;;;10.41;58.01;99316.88;5015675;28;20488;-82
2024/02/22 01:37:56;;;;;;;4.90;3.33;;;;;;;10.40;58.31;99318.63;5015468;28;20053;-82
2024/02/22 01:40:22;;;;;;;4.75;2.95;;;;;;;10.38;58.26;99319.69;4999221;28;20353;-82
2024/02/22 01:42:47;;;;;;;4.82;2.97;;;;;;;10.36;58.32;99311.09;5031335;28;20037;-82
2024/02/22 01:45:14;;;;;;;4.93;3.30;;;;;;;10.32;58.40;99311.31;5014701;28;20465;-82
2024/02/22 01:47:39;;;;;;;4.40;3.20;;;;;;;10.24;58.40;99304.91;5015411;28;20025;-81
2024/02/22 01:50:06;;;;;;;6.10;3.60;;;;;;;10.25;58.30;99307.41;5014818;28;20086;-80
2024/02/22 01:52:31;;;;;;;5.93;3.00;;;;;;;10.24;58.43;99307.50;5015080;28;20453;-82
2024/02/22 01:54:57;;;;;;;4.65;3.00;;;;;;;10.17;58.42;99290.56;5031828;28;20036;-83
2024/02/22 01:57:22;;;;;;;4.22;2.92;;;;;;;10.18;58.52;99297.47;4998771;28;20235;-82
2024/02/22 01:59:48;;;;;;;5.32;3.38;;;;;;;10.10;58.67;99301.44;5014774;28;20037;-82
2024/02/22 02:02:13;;;;;;;4.68;2.83;;;;;;;10.10;58.50;99300.59;5030938;28;20045;-82
2024/02/22 02:04:39;;;;;;;5.05;3.30;;;;;;;10.10;58.68;99304.03;5031560;28;20033;-82
2024/02/22 02:07:04;;;;;;;5.03;3.35;;;;;;;10.03;58.48;99292.31;5014949;28;20025;-82
2024/02/22 02:09:30;;;;;;;4.57;3.13;;;;;;;10.05;58.43;99300.06;5014589;28;20095;-82
2024/02/22 02:11:55;;;;;;;5.00;3.00;;;;;;;10.01;58.59;99293.34;5030608;28;20079;-82
2024/02/22 02:14:21;;;;;;;4.53;2.97;;;;;;;9.99;58.45;99290.00;5015007;28;20046;-82
2024/02/22 02:16:47;;;;;;;4.43;3.30;;;;;;;9.98;58.64;99293.53;5031609;28;20029;-82
2024/02/22 02:19:19;;;;;;;5.88;3.00;;;;;;;9.95;58.72;99286.78;5014512;28;20092;-82
2024/02/22 02:22:00;;;;;;;5.70;3.15;;;;;;;9.93;58.85;99283.41;5015137;28;20061;-83
2024/02/22 02:25:02;;;;;;;5.65;3.20;;;;;;;9.91;58.59;99282.69;5032270;28;20057;-82
2024/02/22 02:27:27;;;;;;;4.68;2.78;;;;;;;9.87;58.72;99295.09;5014546;28;20033;-82
2024/02/22 02:29:52;;;;;;;4.32;2.95;;;;;;;9.78;58.97;99287.84;5032211;28;20029;-82
2024/02/22 02:32:18;;;;;;;5.45;3.17;;;;;;;9.77;58.72;99275.75;5014522;28;20025;-81
2024/02/22 02:34:43;;;;;;;4.63;2.95;;;;;;;9.81;58.93;99289.44;5014370;28;20033;-82
2024/02/22 02:37:10;;;;;;;4.47;2.90;;;;;;;9.78;58.62;99293.06;4997818;28;20064;-82
2024/02/22 02:39:36;;;;;;;5.40;2.90;;;;;;;9.77;58.69;99294.84;5014497;28;20489;-83
2024/02/22 02:42:01;;;;;;;4.28;2.80;;;;;;;9.73;58.84;99287.31;5032005;28;20022;-81
2024/02/22 02:44:27;;;;;;;4.63;2.90;;;;;;;9.70;58.86;99282.31;5030453;28;20053;-82
2024/02/22 02:46:52;;;;;;;3.97;2.80;;;;;;;9.71;58.82;99286.56;5030854;28;20029;-82
2024/02/22 02:49:18;;;;;;;4.65;2.72;;;;;;;9.69;58.58;99284.06;5030662;28;20140;-83
2024/02/22 02:51:43;;;;;;;4.88;3.17;;;;;;;9.64;58.80;99282.69;5030499;28;20081;-83
2024/02/22 02:54:09;;;;;;;5.43;3.15;;;;;;;9.66;58.65;99280.81;5030619;28;20037;-82
2024/02/22 02:56:34;;;;;;;5.10;3.08;;;;;;;9.58;58.88;99282.16;5014409;28;20045;-82
2024/02/22 02:59:00;;;;;;;4.75;3.08;;;;;;;9.63;58.79;99281.88;5031053;28;20469;-82
2024/02/22 03:01:25;;;;;;;5.38;2.80;;;;;;;9.56;58.91;99276.19;5014173;28;20021;-84
2024/02/22 03:03:51;;;;;;;4.20;2.90;;;;;;;9.58;58.71;99276.09;4997870;28;20033;-81
2024/02/22 03:06:16;;;;;;;4.15;2.85;;;;;;;9.57;58.88;99285.69;5030801;28;20029;-82
2024/02/22 03:08:42;;;;;;;4.75;3.10;;;;;;;9.55;58.79;99287.56;5032500;28;20029;-82
2024/02/22 03:11:08;;;;;;;4.57;2.97;;;;;;;9.53;58.73;99292.00;5030386;28;20036;-82
2024/02/22 03:13:33;;;;;;;4.63;3.17;;;;;;;9.45;58.78;99289.06;5031040;28;20467;-83
2024/02/22 03:15:59;;;;;;;4.47;2.92;;;;;;;9.50;58.50;99297.41;5014439;28;20032;-80
2024/02/22 03:18:25;;;;;;;4.57;3.08;;;;;;;9.48;58.80;99299.28;5031441;28;20038;-81
2024/02/22 03:20:52;;;;;;;4.60;3.17;;;;;;;9.44;58.89;99304.78;5030544;28;20056;-79
2024/02/22 03:23:17;;;;;;;6.25;3.30;;;;;;;9.43;58.91;99303.97;5039403;28;20073;-80
2024/02/22 03:25:44;;;;;;;4.53;3.10;;;;;;;9.41;58.74;99304.06;5028958;28;20033;-81
2024/02/22 03:28:12;;;;;;;5.05;3.38;;;;;;;9.41;58.88;99305.84;5010526;28;20119;-81
2024/02/22 03:30:39;;;;;;;5.05;3.20;;;;;;;9.34;59.08;99297.53;5044669;28;20053;-80
2024/02/22 03:33:05;;;;;;;4.65;3.35;;;;;;;9.36;58.98;99306.13;5026556;28;20037;-82
2024/02/22 03:35:31;;;;;;;4.40;3.17;;;;;;;9.28;59.00;99289.28;5026613;28;20045;-81
2024/02/22 03:37:56;;;;;;;4.05;3.03;;;;;;;9.33;59.02;99297.63;5043524;28;20637;-81
2024/02/22 03:40:22;;;;;;;5.60;3.47;;;;;;;9.30;58.98;99301.28;5035481;28;20128;-82
2024/02/22 03:42:47;;;;;;;5.65;3.50;;;;;;;9.23;59.03;99284.34;5017754;28;20040;-81
2024/02/22 03:45:13;;;;;;;6.40;3.40;;;;;;;9.27;59.10;99298.88;5017044;28;20041;-81
2024/02/22 03:47:38;;;;;;;6.65;3.53;;;;;;;9.24;59.01;99292.06;5035305;28;20053;-82
2024/02/22 03:50:04;;;;;;;5.60;3.40;;;;;;;9.18;58.84;99281.19;5033700;28;20076;-80
2024/02/22 03:52:31;;;;;;;4.80;3.13;;;;;;;9.21;59.04;99287.06;5001310;28;20049;-81
2024/02/22 03:54:58;;;;;;;5.05;3.28;;;;;;;9.16;59.30;99283.06;5034480;28;20046;-81
2024/02/22 03:57:24;;;;;;;5.00;3.10;;;;;;;9.15;58.89;99281.38;5033533;28;20092;-83
2024/02/22 03:59:50;;;;;;;4.72;3.25;;;;;;;9.12;58.85;99282.41;5000641;28;20481;-81
2024/02/22 04:02:16;;;;;;;5.57;3.45;;;;;;;9.10;58.88;99279.06;5034837;28;20029;-81
2024/02/22 04:04:51;;;;;;;4.60;3.13;;;;;;;9.09;59.02;99279.16;5000910;28;20056;-80
2024/02/22 04:07:16;;;;;;;5.55;3.30;;;;;;;9.03;58.88;99280.38;5017512;28;20067;-81
2024/02/22 04:09:42;;;;;;;5.38;3.25;;;;;;;9.08;58.79;99282.69;5016898;28;20080;-81
2024/02/22 04:12:07;;;;;;;4.65;3.28;;;;;;;9.09;59.21;99284.38;5016395;28;20075;-81
2024/02/22 04:14:33;;;;;;;5.05;3.30;;;;;;;9.07;59.08;99278.44;5016381;28;20029;-80
2024/02/22 04:16:59;;;;;;;5.50;3.25;;;;;;;9.00;59.23;99276.19;5016957;28;20057;-81
2024/02/22 04:19:24;;;;;;;5.45;3.25;;;;;;;9.00;59.17;99271.00;5035207;28;20503;-80
2024/02/22 04:21:50;;;;;;;5.70;3.60;;;;;;;9.01;58.79;99275.28;5019078;28;20022;-81
2024/02/22 04:24:15;;;;;;;5.22;3.42;;;;;;;8.98;59.15;99269.41;5018824;28;20037;-79
2024/02/22 04:26:48;;;;;;;7.60;3.28;;;;;;;8.96;58.77;99271.25;5016489;28;20374;-79
2024/02/22 04:29:15;;;;;;;5.13;3.53;;;;;;;8.99;59.04;99277.13;5016381;28;20034;-81
2024/02/22 04:31:41;;;;;;;4.05;2.80;;;;;;;8.97;59.07;99270.34;5032144;28;20037;-81
2024/02/22 04:34:06;;;;;;;4.90;3.47;;;;;;;8.90;58.89;99267.25;4999752;28;20033;-80
2024/02/22 04:36:32;;;;;;;5.35;3.28;;;;;;;8.93;59.10;99276.66;4999954;28;20123;-83
2024/02/22 04:38:57;;;;;;;5.22;3.33;;;;;;;8.91;59.05;99274.16;5032628;28;20439;-78
2024/02/22 04:41:23;;;;;;;5.47;3.35;;;;;;;8.86;59.00;99268.38;5033932;28;20108;-80
2024/02/22 04:43:48;;;;;;;5.95;3.53;;;;;;;8.86;59.14;99276.19;5016613;28;20044;-80
2024/02/22 04:46:14;;;;;;;6.20;3.40;;;;;;;8.85;59.38;99283.16;5000475;28;20417;-80
2024/02/22 04:48:39;;;;;;;5.18;3.50;;;;;;;8.83;59.07;99282.41;5034208;28;20468;-84
2024/02/22 04:51:05;;;;;;;5.47;3.53;;;;;;;8.78;59.28;99271.47;5034161;28;20037;-82
2024/02/22 04:53:30;;;;;;;5.03;3.08;;;;;;;8.86;61.96;99282.22;5032382;28;20103;-80
2024/02/22 04:55:56;;;;;;;7.15;3.60;;;;;;;8.87;60.95;99283.91;4999476;28;20037;-76
2024/02/22 04:58:21;;;;;;;6.13;3.60;;;;;;;8.94;62.66;99283.56;5017606;28;20033;-81
2024/02/22 05:00:47;;;;;;;5.15;3.33;;;;;;;8.96;63.72;99284.28;5015976;28;20488;-80
2024/02/22 05:03:12;;;;;;;10.52;3.60;;;;;;;8.92;63.15;99269.75;4999812;28;20041;-82
2024/02/22 05:05:39;;;;;;;5.25;3.20;;;;;;;9.13;67.28;99283.25;5015862;28;20087;-82
2024/02/22 05:08:05;;;;;;;5.78;3.70;;;;;;;9.13;64.67;99285.88;4999749;28;20342;-80
2024/02/22 05:10:31;;;;;;;6.03;3.75;;;;;;;9.12;63.66;99295.44;5016537;28;20033;-82
2024/02/22 05:12:57;;;;;;;7.47;3.75;;;;;;;9.17;62.88;99292.53;5001816;28;20097;-84
2024/02/22 05:15:22;;;;;;;6.25;3.92;;;;;;;9.27;62.00;99295.44;5035637;28;20041;-82
2024/02/22 05:17:48;;;;;;;7.03;3.72;;;;;;;9.41;61.42;99296.25;5033134;28;20043;-80
2024/02/22 05:20:13;;;;;;;7.75;4.63;;;;;;;9.58;60.09;99300.41;5034365;28;20098;-83
2024/02/22 05:22:39;;;;;;;9.18;4.40;;;;;;;9.82;59.75;99299.78;5052156;28;20024;-80
2024/02/22 05:25:08;;;;;;;6.82;4.05;;;;;;;10.04;59.13;99291.41;5052460;28;20033;-83
2024/02/22 05:27:34;;;;;;;8.95;4.53;;;;;;;10.36;58.38;99305.88;5052034;28;20029;-82
2024/02/22 05:29:59;;;;;;;7.80;4.45;;;;;;;10.59;57.76;99305.19;5035431;28;20041;-80
2024/02/22 05:32:25;;;;;;;6.90;4.43;;;;;;;10.87;57.52;99305.94;5051761;28;20037;-83
2024/02/22 05:34:50;;;;;;;6.38;4.10;;;;;;;11.13;56.65;99308.53;5035410;28;20048;-82
2024/02/22 05:37:17;;;;;;;7.43;4.80;;;;;;;11.42;55.97;99303.88;5018964;28;20036;-82
2024/02/22 05:39:42;;;;;;;7.00;4.57;;;;;;;11.71;55.78;99304.41;5051652;28;20551;-83
2024/02/22 05:42:08;;;;;;;6.10;4.57;;;;;;;12.02;54.60;99314.44;5051405;28;20040;-83
2024/02/22 05:44:33;;;;;;;7.40;4.63;;;;;;;12.36;54.05;99314.59;5051100;28;20127;-81
2024/02/22 05:46:59;;;;;;;6.63;4.43;;;;;;;12.63;52.90;99302.06;5051158;28;20051;-84
2024/02/22 05:49:24;;;;;;;7.60;5.05;;;;;;;12.94;51.79;99306.72;5035064;28;20060;-82
2024/02/22 05:51:50;;;;;;;20.80;13.15;;;;;;;13.33;51.45;99312.47;5051322;28;20120;-83
2024/02/22 05:54:15;;;;;;;24.15;15.43;;;;;;;13.68;50.35;99314.94;5051367;28;20111;-84
2024/02/22 05:56:41;;;;;;;26.02;16.27;;;;;;;14.03;49.81;99308.63;5018272;28;20033;-83
2024/02/22 05:59:06;;;;;;;34.05;20.38;;;;;;;14.49;48.56;99317.13;5034563;28;20029;-83
2024/02/22 06:01:33;;;;;;;31.95;18.35;;;;;;;14.93;47.27;99322.28;5051251;28;20484;-83
2024/02/22 06:03:58;;;;;;;26.38;16.70;;;;;;;15.37;46.58;99307.09;5035186;28;20040;-83
2024/02/22 06:06:24;;;;;;;24.17;14.70;;;;;;;15.87;45.81;99311.50;5034888;28;20044;-83
2024/02/22 06:08:49;;;;;;;21.08;14.25;;;;;;;16.32;44.66;99313.59;5034806;28;20052;-83
2024/02/22 06:11:19;;;;;;;23.75;15.50;;;;;;;16.77;44.20;99320.03;5051216;28;20087;-84
2024/02/22 06:13:44;;;;;;;25.75;16.08;;;;;;;17.21;43.45;99315.06;5035279;28;20029;-83
2024/02/22 06:16:10;;;;;;;24.50;15.57;;;;;;;17.63;42.79;99322.50;5052532;28;20503;-83
2024/02/22 06:18:35;;;;;;;25.85;16.60;;;;;;;18.06;41.95;99320.16;5052376;28;20029;-83
2024/02/22 06:21:02;;;;;;;26.70;17.70;;;;;;;18.49;41.30;99320.34;5050713;28;20040;-82
2024/02/22 06:23:27;;;;;;;23.77;16.67;;;;;;;18.91;40.26;99319.66;5050689;28;20045;-80
2024/02/22 06:25:55;;;;;;;22.23;15.90;;;;;;;19.34;39.05;99317.91;5034127;28;20119;-82
2024/02/22 06:28:21;;;;;;;24.95;15.35;;;;;;;19.75;38.62;99325.13;5034697;28;20033;-85
2024/02/22 06:30:46;;;;;;;23.30;15.05;;;;;;;20.19;37.45;99331.06;5034378;28;20480;-83
2024/02/22 06:33:12;;;;;;;18.75;13.80;;;;;;;20.60;36.47;99319.59;5050975;28;20025;-82
2024/02/22 06:35:38;;;;;;;22.88;14.73;;;;;;;21.06;35.31;99324.34;5050771;28;20068;-84
2024/02/22 06:38:03;;;;;;;19.55;12.77;;;;;;;21.45;34.40;99323.53;5052020;28;20108;-83
2024/02/22 06:40:29;;;;;;;19.73;11.75;;;;;;;21.89;33.58;99330.16;5051920;28;20029;-82
2024/02/22 06:42:54;;;;;;;18.13;11.75;;;;;;;22.30;32.74;99329.91;5034171;28;20049;-84
2024/02/22 06:45:23;;;;;;;17.92;11.00;;;;;;;22.66;31.84;99330.06;5034594;28;20061;-83
2024/02/22 06:47:50;;;;;;;16.45;10.27;;;;;;;23.13;31.06;99336.09;5018904;28;20516;-81
2024/02/22 06:50:16;;;;;;;15.73;9.55;;;;;;;23.53;30.34;99333.97;5034207;28;20044;-86
2024/02/22 06:52:42;;;;;;;16.58;9.70;;;;;;;23.97;29.92;99335.72;5018620;28;20412;-80
2024/02/22 06:55:08;;;;;;;13.50;8.65;;;;;;;24.48;29.15;99341.91;5051163;28;20036;-81
2024/02/22 06:57:33;;;;;;;11.70;8.07;;;;;;;25.12;27.95;99335.63;5035897;28;20424;-81
2024/02/22 06:59:59;;;;;;;12.90;9.10;;;;;;;25.61;27.33;99333.81;5055704;28;20036;-81
2024/02/22 07:02:24;;;;;;;17.13;8.93;;;;;;;26.02;26.81;99316.06;5021725;28;20028;-82
2024/02/22 07:04:50;;;;;;;16.92;8.48;;;;;;;26.53;26.16;99332.34;5038160;28;20040;-82
2024/02/22 07:07:15;;;;;;;12.93;8.75;;;;;;;27.34;25.25;99335.75;5056059;28;20473;-81
2024/02/22 07:09:41;;;;;;;13.40;8.48;;;;;;;28.05;24.22;99330.47;5038536;28;20060;-80
2024/02/22 07:12:07;;;;;;;12.30;8.68;;;;;;;28.84;22.93;99329.03;5056243;28;20025;-82
2024/02/22 07:14:33;;;;;;;14.25;9.93;;;;;;;29.57;22.59;99331.94;5055814;28;20439;-78
2024/02/22 07:16:59;;;;;;;14.52;10.27;;;;;;;30.35;21.33;99332.06;5054329;28;20032;-81
2024/02/22 07:19:24;;;;;;;13.05;9.73;;;;;;;31.18;20.09;99330.22;5038687;28;20045;-79
2024/02/22 07:21:50;;;;;;;9.90;7.18;;;;;;;31.63;20.84;99329.56;5062301;28;20028;-81
2024/02/22 07:24:16;;;;;;;21.45;6.63;;;;;;;32.32;20.96;99331.31;5057319;28;20033;-84
2024/02/22 07:26:42;;;;;;;13.30;7.38;;;;;;;32.74;20.60;99332.78;5054908;28;20029;-79
2024/02/22 07:29:08;;;;;;;17.65;6.10;;;;;;;33.20;20.60;99322.63;5037984;28;20412;-81
2024/02/22 07:31:33;;;;;;;10.68;6.28;;;;;;;33.69;19.39;99319.91;5038191;28;20083;-83
2024/02/22 07:33:59;;;;;;;10.88;6.53;;;;;;;33.97;18.60;99323.47;5054455;28;20032;-81
2024/02/22 07:36:25;;;;;;;9.68;5.82;;;;;;;34.12;18.10;99313.84;5054368;28;20033;-81
2024/02/22 07:38:51;;;;;;;8.15;6.03;;;;;;;33.96;17.96;99316.41;5053661;28;20615;-84
2024/02/22 07:41:16;;;;;;;9.80;6.15;;;;;;;33.75;18.27;99320.81;5053591;28;20102;-85
2024/02/22 07:43:43;;;;;;;8.98;5.88;;;;;;;33.21;18.63;99320.72;5054782;28;20546;-81
2024/02/22 07:46:13;;;;;;;9.30;6.47;;;;;;;32.55;19.08;99313.31;5037925;28;20052;-84
2024/02/22 07:48:55;;;;;;;;;;;;;;;31.80;19.82;99308.00;5039729;28;20033;-81
2024/02/22 07:51:22;;;;;;;11.43;6.30;;;;;;;31.55;20.32;99311.88;5054097;28;19912;-81
2024/02/22 07:53:48;;;;;;;8.63;6.03;;;;;;;31.24;20.42;99299.63;5053801;28;20492;-80
2024/02/22 07:56:13;;;;;;;10.27;6.38;;;;;;;31.09;20.65;99308.22;5037377;28;20033;-81
2024/02/22 07:58:53;;;;;;;11.70;6.50;;;;;;;30.92;20.75;99297.31;5020554;28;20033;-82
2024/02/22 08:01:18;;;;;;;12.13;6.40;;;;;;;30.83;21.16;99302.25;5037773;28;20466;-80
2024/02/22 08:03:44;;;;;;;10.65;6.28;;;;;;;30.77;21.05;99307.75;5037126;28;20061;-81
2024/02/22 08:06:10;;;;;;;11.00;6.35;;;;;;;30.64;20.74;99308.81;5036955;28;20066;-81
2024/02/22 08:08:36;;;;;;;15.85;6.70;;;;;;;30.47;21.17;99298.75;5053399;28;20037;-80
2024/02/22 08:11:02;;;;;;;9.45;6.20;;;;;;;30.28;21.68;99295.31;5020474;28;20475;-82
2024/02/22 08:13:27;;;;;;;7.55;5.88;;;;;;;30.25;21.42;99306.56;5020517;28;20041;-80
2024/02/22 08:16:00;;;;;;;9.20;6.55;;;;;;;30.22;21.46;99308.88;5054825;28;20067;-79
2024/02/22 08:18:25;;;;;;;12.52;6.50;;;;;;;30.24;21.34;99304.09;5021432;28;20039;-81
2024/02/22 08:20:51;;;;;;;10.68;6.53;;;;;;;30.13;22.53;99295.75;5036463;28;20029;-78
2024/02/22 08:23:16;;;;;;;11.52;8.23;;;;;;;28.77;23.55;99287.97;5064435;28;20057;-87
2024/02/22 08:25:42;;;;;;;20.80;10.23;;;;;;;28.38;22.01;99292.63;5061564;28;20041;-89
2024/02/22 08:28:09;;;;;;;32.83;11.15;;;;;;;27.24;22.79;99292.47;5063134;28;20029;-85
2024/02/22 08:30:38;;;;;;;18.50;11.27;;;;;;;27.12;22.94;99283.44;5057727;28;20471;-78
2024/02/22 08:33:03;;;;;;;14.07;8.75;;;;;;;27.39;25.15;99287.69;5054139;28;20440;-81
2024/02/22 08:35:29;;;;;;;14.57;7.60;;;;;;;27.72;26.91;99293.91;5036245;28;20242;-83
2024/02/22 08:37:55;;;;;;;16.88;7.07;;;;;;;28.08;26.83;99298.66;5020467;28;20466;-81
2024/02/22 08:40:20;;;;;;;15.88;6.60;;;;;;;28.46;26.57;99289.66;5053077;28;20052;-78
2024/02/22 08:42:46;;;;;;;11.73;6.80;;;;;;;28.79;26.01;99291.25;5054154;28;20079;-81
2024/02/22 08:45:14;;;;;;;21.70;7.35;;;;;;;29.09;25.10;99298.56;5036122;28;20131;-84
2024/02/22 08:47:43;;;;;;;10.50;6.20;;;;;;;29.27;25.58;99296.94;5037768;28;20098;-81
2024/02/22 08:50:09;;;;;;;9.88;6.35;;;;;;;29.34;25.63;99295.00;5055577;28;20043;-87
2024/02/22 08:52:41;;;;;;;14.93;6.53;;;;;;;29.45;25.26;99296.94;5036405;28;20029;-76
2024/02/22 08:55:08;;;;;;;13.23;6.55;;;;;;;29.57;25.16;99292.41;5053484;28;20024;-77
2024/02/22 08:57:34;;;;;;;11.55;6.55;;;;;;;29.59;24.71;99284.13;5035815;28;20021;-75
2024/02/22 08:59:59;;;;;;;12.18;7.18;;;;;;;29.67;24.37;99293.75;5053357;28;20091;-75
2024/02/22 09:02:25;;;;;;;15.52;6.85;;;;;;;29.68;24.37;99273.84;5052900;28;20025;-75
2024/02/22 09:04:50;;;;;;;13.07;7.00;;;;;;;29.72;24.21;99283.94;5052081;28;20090;-78
2024/02/22 09:07:16;;;;;;;10.10;6.50;;;;;;;29.83;24.53;99284.22;5035716;28;20479;-76
2024/02/22 09:09:41;;;;;;;10.48;6.63;;;;;;;29.77;24.52;99281.34;5053059;28;20036;-79
2024/02/22 09:12:07;;;;;;;24.02;6.40;;;;;;;29.87;24.12;99285.41;5018975;28;20526;-79
2024/02/22 09:14:32;;;;;;;13.65;6.32;;;;;;;30.00;23.67;99279.81;5035262;28;20045;-80
2024/02/22 09:16:58;;;;;;;18.20;7.00;;;;;;;29.81;24.35;99272.88;5051793;28;20063;-76
2024/02/22 09:19:25;;;;;;;12.07;6.22;;;;;;;29.90;24.06;99282.25;5052950;28;20104;-76
2024/02/22 09:21:51;;;;;;;10.27;5.70;;;;;;;30.21;23.68;99277.63;5051676;28;20025;-78
2024/02/22 09:24:16;;;;;;;9.38;5.60;;;;;;;30.51;23.12;99276.75;5034694;28;20059;-74
2024/02/22 09:26:42;;;;;;;8.70;5.35;;;;;;;30.63;23.24;99272.16;5052989;28;20408;-75
2024/02/22 09:29:07;;;;;;;12.85;5.80;;;;;;;30.64;23.72;99273.81;5018654;28;20205;-81
2024/02/22 09:31:33;;;;;;;14.00;7.65;;;;;;;30.65;23.79;99264.69;5018418;28;20420;-76
2024/02/22 09:34:00;;;;;;;13.27;7.65;;;;;;;30.79;23.01;99259.81;5051692;28;20393;-77
2024/02/22 09:36:26;;;;;;;9.57;5.93;;;;;;;31.01;22.16;99266.28;5035210;28;20408;-79
2024/02/22 09:38:52;;;;;;;7.20;5.20;;;;;;;31.01;21.28;99262.75;5051490;28;20025;-79
2024/02/22 09:41:17;;;;;;;8.82;5.55;;;;;;;31.01;21.60;99252.81;5034762;28;20036;-76
2024/02/22 09:43:44;;;;;;;8.38;5.28;;;;;;;31.14;21.71;99257.09;5051290;28;20029;-76
2024/02/22 09:46:11;;;;;;;9.95;5.70;;;;;;;31.15;21.78;99244.44;5051347;28;20052;-76
2024/02/22 09:48:37;;;;;;;5.53;4.70;;;;;;;31.12;21.66;99228.72;5052629;28;20908;-78
2024/02/22 09:51:04;;;;;;;6.90;5.05;;;;;;;31.09;21.81;99235.44;5018223;28;20041;-76
2024/02/22 09:53:29;;;;;;;6.25;4.65;;;;;;;31.11;21.48;99227.91;5034962;28;20094;-77
2024/02/22 09:55:55;;;;;;;6.15;4.32;;;;;;;31.13;21.78;99233.06;5051608;28;20392;-77
2024/02/22 09:58:21;;;;;;;5.20;4.00;;;;;;;31.01;21.68;99225.84;5034644;28;20043;-76
2024/02/22 10:00:47;;;;;;;6.68;4.13;;;;;;;30.96;21.67;99224.88;5034246;28;20433;-77
2024/02/22 10:03:12;;;;;;;5.28;3.63;;;;;;;30.89;21.80;99219.63;5034690;28;20075;-77
2024/02/22 10:05:38;;;;;;;5.40;4.00;;;;;;;30.75;22.09;99213.69;5052592;28;20384;-77
2024/02/22 10:08:15;;;;;;;5.40;3.45;;;;;;;30.77;22.07;99216.94;5034736;28;20075;-76
2024/02/22 10:10:41;;;;;;;5.70;3.08;;;;;;;30.53;21.76;99204.59;5034968;28;20491;-77
2024/02/22 10:13:06;;;;;;;7.70;3.70;;;;;;;30.49;22.32;99204.25;5052147;28;20040;-77
2024/02/22 10:15:33;;;;;;;5.13;3.30;;;;;;;30.17;22.16;99193.00;5034552;28;20025;-77
2024/02/22 10:17:59;;;;;;;4.60;3.07;;;;;;;30.28;22.16;99192.16;5051094;28;20033;-77
2024/02/22 10:20:32;;;;;;;4.07;3.08;;;;;;;29.96;22.82;99187.13;5034329;28;20557;-77
2024/02/22 10:23:06;;;;;;;4.35;3.20;;;;;;;29.10;22.98;99181.97;5034327;28;20043;-79
2024/02/22 10:25:32;;;;;;;3.97;2.80;;;;;;;28.53;23.02;99176.84;5034142;28;20033;-77
2024/02/22 10:27:57;;;;;;;4.60;2.90;;;;;;;28.66;22.85;99167.84;5051892;28;20082;-74
2024/02/22 10:30:26;;;;;;;4.40;2.90;;;;;;;28.50;23.12;99161.97;5050767;28;20048;-76
2024/02/22 10:32:54;;;;;;;5.07;2.75;;;;;;;28.49;23.24;99165.69;5017939;28;20060;-78
2024/02/22 10:35:20;;;;;;;3.90;2.67;;;;;;;28.49;23.20;99159.53;5017799;28;20071;-78
2024/02/22 10:37:54;;;;;;;7.63;2.80;;;;;;;28.50;23.24;99145.06;5034269;28;20028;-77
2024/02/22 10:40:20;;;;;;;4.03;2.65;;;;;;;28.48;22.89;99144.44;5050940;28;20033;-76
2024/02/22 10:42:48;;;;;;;3.35;2.60;;;;;;;28.42;23.30;99148.88;5034350;28;20087;-79
2024/02/22 10:45:14;;;;;;;5.47;2.50;;;;;;;28.05;23.32;99137.28;5017710;28;20052;-76
2024/02/22 10:47:40;;;;;;;3.50;2.45;;;;;;;28.10;23.37;99140.09;5034613;28;20112;-75
2024/02/22 10:50:06;;;;;;;3.38;2.50;;;;;;;28.07;23.37;99138.69;5033483;28;20068;-75
2024/02/22 10:52:35;;;;;;;3.20;2.40;;;;;;;27.93;23.37;99132.59;5050274;28;20110;-74
2024/02/22 10:55:06;;;;;;;3.15;2.28;;;;;;;27.78;23.72;99122.22;5034024;28;20056;-76
2024/02/22 10:57:31;;;;;;;5.38;2.50;;;;;;;27.67;23.81;99128.28;5034429;28;20032;-76
2024/02/22 10:59:57;;;;;;;3.25;2.35;;;;;;;27.42;23.79;99115.69;5051804;28;20029;-76
2024/02/22 11:02:22;;;;;;;3.10;2.35;;;;;;;27.15;24.21;99119.56;5033718;28;20033;-75
2024/02/22 11:04:48;;;;;;;3.75;2.53;;;;;;;27.03;25.58;99106.84;5049976;28;20045;-74
2024/02/22 11:07:14;;;;;;;4.50;2.90;;;;;;;26.99;27.46;99104.81;5017161;28;20507;-77
2024/02/22 11:09:40;;;;;;;4.97;2.90;;;;;;;26.93;27.26;99103.00;5033327;28;20041;-74
2024/02/22 11:12:07;;;;;;;4.53;3.05;;;;;;;26.79;27.75;99102.25;5032584;28;20480;-74
2024/02/22 11:14:37;;;;;;;5.82;2.75;;;;;;;26.64;27.51;99099.81;5051744;28;20027;-74
2024/02/22 11:17:14;;;;;;;4.38;2.85;;;;;;;26.46;27.96;99087.94;5033881;28;20071;-75
2024/02/22 11:19:39;;;;;;;5.88;2.85;;;;;;;26.44;28.13;99103.41;5033576;28;20033;-74
2024/02/22 11:22:15;;;;;;;3.60;2.85;;;;;;;26.29;27.89;99084.09;5048582;28;20063;-75
2024/02/22 11:24:41;;;;;;;7.85;3.13;;;;;;;25.94;27.85;99084.38;5050027;28;20388;-82
2024/02/22 11:27:07;;;;;;;11.18;3.63;;;;;;;25.51;28.55;99095.47;5017020;28;20036;-80